Time;durP1;ratioP1;P1;durP2;ratioP2;P2;SDS_P1;SDS_P2;PMS_P1;PMS_P2;Temp;Humidity;BMP_temperature;BMP_pressure;BME280_temperature;BME280_humidity;BME280_pressure;Samples;Min_cycle;Max_cycle;Signal;HPM_P1;HPM_P2
2020/12/19 00:00:59;;;;;;;153.65;51.33;;;128.30;2252.80;;;;;;5076985;28;20321;-70
2020/12/19 00:03:25;;;;;;;157.75;51.83;;;103.30;2227.20;;;;;;5078411;28;20036;-68
2020/12/19 00:05:51;;;;;;;140.85;46.60;;;128.10;2252.80;;;;;;5081125;28;20143;-68
2020/12/19 00:08:16;;;;;;;141.02;48.83;;;128.30;2252.80;;;;;;5080711;28;20017;-69
2020/12/19 00:10:42;;;;;;;141.88;48.72;;;128.50;2252.80;;;;;;5080942;28;20150;-69
2020/12/19 00:13:08;;;;;;;145.40;46.75;;;128.20;2252.80;;;;;;5080910;28;20316;-71
2020/12/19 00:15:34;;;;;;;146.98;52.78;;;128.20;2252.80;;;;;;5080393;28;20122;-70
2020/12/19 00:17:59;;;;;;;154.88;53.13;;;128.30;2252.80;;;;;;5080530;28;20449;-69
2020/12/19 00:20:25;;;;;;;146.13;49.55;;;128.00;2252.80;;;;;;5080467;28;20032;-70
2020/12/19 00:22:51;;;;;;;140.38;48.33;;;103.30;2227.20;;;;;;5080931;28;20024;-71
2020/12/19 00:25:17;;;;;;;138.93;47.63;;;128.20;2252.80;;;;;;5080674;28;20305;-69
2020/12/19 00:27:44;;;;;;;143.43;49.17;;;128.10;2252.80;;;;;;5080873;28;20043;-69
2020/12/19 00:30:10;;;;;;;142.32;47.03;;;128.00;2252.80;;;;;;5079913;28;20069;-69
2020/12/19 00:32:40;;;;;;;128.98;44.67;;;128.20;2252.80;;;;;;5080209;28;20052;-68
2020/12/19 00:35:07;;;;;;;119.45;43.65;;;128.30;2252.80;;;;;;5080664;28;20025;-69
2020/12/19 00:37:33;;;;;;;124.55;44.40;;;128.30;2252.80;;;;;;5080371;28;20065;-70
2020/12/19 00:39:59;;;;;;;114.57;44.35;;;128.50;2252.80;;;;;;5080080;28;20080;-68
2020/12/19 00:42:25;;;;;;;116.25;43.60;;;128.30;2252.80;;;;;;5079997;28;20438;-69
2020/12/19 00:44:50;;;;;;;111.68;43.28;;;128.30;2252.80;;;;;;5080477;28;20028;-68
2020/12/19 00:47:16;;;;;;;112.78;41.92;;;128.60;2252.80;;;;;;5079928;28;20024;-69
2020/12/19 00:49:42;;;;;;;120.45;44.50;;;128.80;2252.80;;;;;;5080162;28;20442;-71
2020/12/19 00:52:08;;;;;;;130.40;46.45;;;128.60;2252.80;;;;;;5080099;28;20056;-68
2020/12/19 00:54:33;;;;;;;118.38;42.67;;;128.50;2252.80;;;;;;5079230;28;20024;-69
2020/12/19 00:56:59;;;;;;;125.05;44.58;;;128.50;2252.80;;;;;;5079927;28;20462;-70
2020/12/19 00:59:25;;;;;;;111.10;42.10;;;128.60;2252.80;;;;;;5080287;28;20327;-69
2020/12/19 01:01:51;;;;;;;120.93;45.17;;;128.70;2252.80;;;;;;5079075;28;20020;-69
2020/12/19 01:04:16;;;;;;;115.55;42.70;;;128.60;2252.80;;;;;;5079821;28;20084;-69
2020/12/19 01:06:42;;;;;;;119.70;43.05;;;128.50;2252.80;;;;;;5079578;28;20430;-69
2020/12/19 01:09:08;;;;;;;126.90;43.67;;;128.30;2252.80;;;;;;5079816;28;20035;-71
2020/12/19 01:11:37;;;;;;;127.88;47.70;;;128.30;2252.80;;;;;;5080046;28;20324;-69
2020/12/19 01:14:06;;;;;;;131.65;48.03;;;128.20;2252.80;;;;;;5078823;28;20029;-69
2020/12/19 01:16:33;;;;;;;139.52;46.53;;;128.40;2252.80;;;;;;5079271;28;20119;-69
2020/12/19 01:19:04;;;;;;;140.35;49.33;;;128.60;2252.80;;;;;;5079619;28;20415;-69
2020/12/19 01:21:30;;;;;;;129.10;46.03;;;128.80;2252.80;;;;;;5079366;28;20032;-70
2020/12/19 01:23:57;;;;;;;131.38;47.42;;;128.70;2252.80;;;;;;5078929;28;20335;-70
2020/12/19 01:26:23;;;;;;;136.75;47.45;;;128.70;2252.80;;;;;;5079480;28;20028;-70
2020/12/19 01:28:49;;;;;;;142.07;47.15;;;128.90;2252.80;;;;;;5079480;28;20103;-69
2020/12/19 01:31:17;;;;;;;137.05;45.75;;;128.80;2252.80;;;;;;5078868;28;20335;-68
2020/12/19 01:33:43;;;;;;;135.90;45.07;;;128.90;2252.80;;;;;;5079139;28;20103;-69
2020/12/19 01:36:15;;;;;;;132.82;46.08;;;128.70;2252.80;;;;;;5079228;28;20420;-71
2020/12/19 01:38:41;;;;;;;120.53;43.30;;;128.50;2252.80;;;;;;5079211;28;20028;-68
2020/12/19 01:41:08;;;;;;;133.18;43.55;;;128.50;2252.80;;;;;;5079235;28;20021;-70
2020/12/19 01:43:52;;;;;;;119.13;45.85;;;128.50;2252.80;;;;;;5078635;28;20085;-71
2020/12/19 01:46:29;;;;;;;137.70;42.25;;;128.70;2252.80;;;;;;5079163;28;20105;-70
2020/12/19 01:48:57;;;;;;;146.55;45.78;;;128.80;2252.80;;;;;;5079100;28;20059;-70
2020/12/19 01:51:24;;;;;;;146.55;46.92;;;128.70;2252.80;;;;;;5078784;28;20340;-69
2020/12/19 01:53:52;;;;;;;121.55;42.80;;;128.60;2252.80;;;;;;5078641;28;20074;-69
2020/12/19 01:56:28;;;;;;;149.27;46.65;;;128.60;2252.80;;;;;;5078891;28;20081;-69
2020/12/19 01:58:54;;;;;;;134.95;45.60;;;128.50;2252.80;;;;;;5079194;28;20025;-68
2020/12/19 02:01:20;;;;;;;129.40;46.50;;;128.60;2252.80;;;;;;5078764;28;20035;-69
2020/12/19 02:03:45;;;;;;;132.48;44.95;;;128.60;2252.80;;;;;;5078383;28;20021;-70
2020/12/19 02:06:13;;;;;;;126.03;45.40;;;128.60;2252.80;;;;;;5079255;28;20064;-69
2020/12/19 02:08:39;;;;;;;141.23;44.13;;;128.40;2252.80;;;;;;5078978;28;20024;-69
2020/12/19 02:11:06;;;;;;;137.55;45.55;;;128.40;2252.80;;;;;;5078641;28;20031;-69
2020/12/19 02:13:31;;;;;;;142.38;46.13;;;128.70;2252.80;;;;;;5078623;28;20031;-68
2020/12/19 02:15:57;;;;;;;132.88;45.85;;;128.60;2252.80;;;;;;5078162;28;20029;-69
2020/12/19 02:18:23;;;;;;;131.85;47.10;;;128.90;2252.80;;;;;;5078513;28;20062;-69
2020/12/19 02:20:49;;;;;;;119.78;45.30;;;128.70;2252.80;;;;;;5078698;28;20040;-68
2020/12/19 02:23:14;;;;;;;116.55;43.17;;;128.70;2252.80;;;;;;5078367;28;20078;-70
2020/12/19 02:25:40;;;;;;;134.95;45.22;;;128.60;2252.80;;;;;;5077444;28;20028;-70
2020/12/19 02:28:08;;;;;;;132.90;46.28;;;128.70;2252.80;;;;;;5078281;28;20027;-72
2020/12/19 02:30:37;;;;;;;126.83;43.33;;;128.90;2252.80;;;;;;5078544;28;20115;-69
2020/12/19 02:33:03;;;;;;;133.65;48.00;;;153.60;2252.80;;;;;;5078222;28;20103;-68
2020/12/19 02:35:29;;;;;;;129.80;45.38;;;128.70;2252.80;;;;;;5078069;28;20353;-69
2020/12/19 02:37:55;;;;;;;131.93;45.85;;;128.70;2252.80;;;;;;5077782;28;20032;-69
2020/12/19 02:40:22;;;;;;;140.15;45.75;;;128.60;2252.80;;;;;;5078105;28;20479;-71
2020/12/19 02:42:48;;;;;;;131.95;47.08;;;128.50;2252.80;;;;;;5077987;28;20028;-69
2020/12/19 02:45:14;;;;;;;131.80;47.50;;;128.60;2252.80;;;;;;5077698;28;20027;-70
2020/12/19 02:47:39;;;;;;;134.95;48.50;;;128.50;2252.80;;;;;;5078152;28;20028;-69
2020/12/19 02:50:06;;;;;;;135.95;45.55;;;128.80;2252.80;;;;;;5077845;28;20331;-69
2020/12/19 02:52:32;;;;;;;118.07;45.10;;;128.60;2252.80;;;;;;5077847;28;20081;-69
2020/12/19 02:54:58;;;;;;;122.78;45.45;;;128.40;2252.80;;;;;;5077760;28;20078;-70
2020/12/19 02:57:24;;;;;;;133.55;45.22;;;128.40;2252.80;;;;;;5077960;28;20033;-70
2020/12/19 02:59:50;;;;;;;127.93;45.58;;;128.30;2252.80;;;;;;5077427;28;20305;-68
2020/12/19 03:02:16;;;;;;;132.10;45.55;;;128.40;2252.80;;;;;;5077644;28;20028;-70
2020/12/19 03:04:42;;;;;;;134.48;48.83;;;128.60;2252.80;;;;;;5077809;28;20107;-68
2020/12/19 03:07:08;;;;;;;126.03;46.22;;;128.50;2252.80;;;;;;5077325;28;20064;-69
2020/12/19 03:09:34;;;;;;;134.00;47.05;;;128.70;2252.80;;;;;;5077207;28;20066;-69
2020/12/19 03:11:59;;;;;;;127.43;43.35;;;128.70;2252.80;;;;;;5077786;28;20154;-68
2020/12/19 03:14:25;;;;;;;132.50;45.95;;;128.50;2252.80;;;;;;5077167;28;20029;-68
2020/12/19 03:16:51;;;;;;;119.72;43.53;;;128.30;2252.80;;;;;;5077073;28;20083;-69
2020/12/19 03:19:17;;;;;;;129.38;45.58;;;128.60;2252.80;;;;;;5077090;28;20032;-69
2020/12/19 03:21:42;;;;;;;127.38;47.60;;;128.70;2252.80;;;;;;5077044;28;20107;-68
2020/12/19 03:24:08;;;;;;;125.97;46.03;;;128.60;2252.80;;;;;;5077033;28;20032;-72
2020/12/19 03:26:34;;;;;;;130.70;45.45;;;128.60;2252.80;;;;;;5077588;28;20355;-70
2020/12/19 03:29:00;;;;;;;119.95;46.35;;;128.50;2252.80;;;;;;5077006;28;20032;-70
2020/12/19 03:31:26;;;;;;;119.13;44.00;;;128.60;2252.80;;;;;;5077187;28;20028;-69
2020/12/19 03:33:52;;;;;;;120.95;44.95;;;128.40;2252.80;;;;;;5076650;28;20017;-70
2020/12/19 03:36:17;;;;;;;118.85;43.35;;;128.50;2252.80;;;;;;5076585;28;20064;-71
2020/12/19 03:38:43;;;;;;;117.70;43.25;;;128.50;2252.80;;;;;;5077183;28;20051;-69
2020/12/19 03:41:09;;;;;;;123.28;44.15;;;128.70;2252.80;;;;;;5076579;28;20431;-70
2020/12/19 03:43:36;;;;;;;104.53;43.33;;;128.70;2252.80;;;;;;5077131;28;20137;-70
2020/12/19 03:46:02;;;;;;;123.25;44.28;;;128.80;2252.80;;;;;;5077363;28;20029;-71
2020/12/19 03:48:27;;;;;;;122.93;42.90;;;128.50;2252.80;;;;;;5077031;28;20025;-68
2020/12/19 03:50:53;;;;;;;110.07;43.15;;;128.40;2252.80;;;;;;5077070;28;20029;-69
2020/12/19 03:53:20;;;;;;;127.03;46.40;;;128.70;2252.80;;;;;;5076709;28;20370;-69
2020/12/19 03:55:46;;;;;;;130.93;46.20;;;128.70;2252.80;;;;;;5076609;28;20411;-68
2020/12/19 03:58:12;;;;;;;129.38;45.97;;;128.70;2252.80;;;;;;5076993;28;20035;-69
2020/12/19 04:00:37;;;;;;;130.15;46.65;;;128.50;2252.80;;;;;;5077222;28;20035;-70
2020/12/19 04:03:03;;;;;;;129.25;46.85;;;128.30;2252.80;;;;;;5076635;28;20327;-70
2020/12/19 04:05:29;;;;;;;128.60;46.17;;;128.30;2252.80;;;;;;5076325;28;20463;-69
2020/12/19 04:07:55;;;;;;;115.90;42.15;;;128.40;2252.80;;;;;;5077181;28;20032;-71
2020/12/19 04:10:21;;;;;;;120.07;43.60;;;128.60;2252.80;;;;;;5076903;28;20370;-69
2020/12/19 04:12:46;;;;;;;125.28;45.20;;;128.50;2252.80;;;;;;5076799;28;20457;-69
2020/12/19 04:15:13;;;;;;;117.30;42.17;;;128.60;2252.80;;;;;;5077020;28;20136;-68
2020/12/19 04:17:39;;;;;;;113.93;42.15;;;128.70;2252.80;;;;;;5075957;28;20107;-69
2020/12/19 04:20:07;;;;;;;115.40;45.28;;;128.70;2252.80;;;;;;5076762;28;20035;-70
2020/12/19 04:22:33;;;;;;;123.15;44.15;;;128.70;2252.80;;;;;;5077016;28;20020;-70
2020/12/19 04:25:00;;;;;;;110.47;42.63;;;128.50;2252.80;;;;;;5076748;28;20028;-69
2020/12/19 04:27:26;;;;;;;104.60;44.92;;;128.50;2252.80;;;;;;5076354;28;20039;-68
2020/12/19 04:29:52;;;;;;;129.80;46.38;;;128.40;2252.80;;;;;;5076961;28;20021;-69
2020/12/19 04:32:18;;;;;;;126.47;47.08;;;128.60;2252.80;;;;;;5076358;28;20025;-69
2020/12/19 04:34:44;;;;;;;138.35;48.15;;;128.70;2252.80;;;;;;5076626;28;20031;-68
2020/12/19 04:37:09;;;;;;;119.78;47.15;;;128.70;2252.80;;;;;;5076214;28;20032;-72
2020/12/19 04:39:35;;;;;;;113.63;44.92;;;128.70;2252.80;;;;;;5076868;28;20039;-69
2020/12/19 04:42:01;;;;;;;114.03;44.08;;;128.60;2252.80;;;;;;5076831;28;20431;-69
2020/12/19 04:44:27;;;;;;;122.47;47.17;;;128.60;2252.80;;;;;;5058306;28;20082;-69
2020/12/19 04:46:53;;;;;;;125.50;45.10;;;128.40;2252.80;;;;;;5076484;28;20028;-68
2020/12/19 04:49:20;;;;;;;126.07;45.90;;;128.50;2252.80;;;;;;5077643;28;20420;-70
2020/12/19 04:51:46;;;;;;;127.60;48.05;;;128.60;2252.80;;;;;;5079880;28;20024;-70
2020/12/19 04:54:12;;;;;;;132.02;46.00;;;128.40;2252.80;;;;;;5080399;28;20024;-69
2020/12/19 04:56:38;;;;;;;122.47;45.20;;;128.40;2252.80;;;;;;5080260;28;20378;-70
2020/12/19 04:59:05;;;;;;;115.55;46.40;;;128.60;2252.80;;;;;;5080070;28;20033;-70
2020/12/19 05:01:31;;;;;;;122.43;45.65;;;128.60;2252.80;;;;;;5080254;28;20074;-69
2020/12/19 05:03:57;;;;;;;112.30;44.45;;;128.50;2252.80;;;;;;5079776;28;20439;-68
2020/12/19 05:06:28;;;;;;;118.65;43.90;;;128.50;2252.80;;;;;;5079408;28;20316;-68
2020/12/19 05:08:55;;;;;;;107.28;41.50;;;128.50;2252.80;;;;;;5061564;28;20081;-69
2020/12/19 05:11:23;;;;;;;105.72;40.50;;;128.60;2252.80;;;;;;5079765;28;20115;-72
2020/12/19 05:13:49;;;;;;;109.07;43.22;;;128.70;2252.80;;;;;;5079793;28;20328;-69
2020/12/19 05:16:18;;;;;;;99.68;42.15;;;128.50;2252.80;;;;;;5079362;28;20035;-70
2020/12/19 05:18:44;;;;;;;109.63;41.88;;;128.30;2252.80;;;;;;5079964;28;20439;-68
2020/12/19 05:21:12;;;;;;;110.15;42.13;;;128.50;2252.80;;;;;;5079070;28;20024;-68
2020/12/19 05:23:43;;;;;;;99.95;40.65;;;128.30;2252.80;;;;;;5079882;28;20024;-70
2020/12/19 05:26:11;;;;;;;104.70;44.35;;;128.50;2252.80;;;;;;5079551;28;20036;-68
2020/12/19 05:28:40;;;;;;;83.60;37.72;;;128.40;2252.80;;;;;;5079848;28;20024;-71
2020/12/19 05:31:07;;;;;;;85.22;38.22;;;128.60;2252.80;;;;;;5079766;28;20032;-68
2020/12/19 05:33:38;;;;;;;97.20;41.00;;;128.60;2252.80;;;;;;5079131;28;20020;-68
2020/12/19 05:36:06;;;;;;;85.82;38.10;;;128.40;2252.80;;;;;;5079575;28;20036;-70
2020/12/19 05:38:38;;;;;;;85.80;37.47;;;128.30;2252.80;;;;;;5079608;28;20115;-69
2020/12/19 05:41:04;;;;;;;93.97;40.20;;;128.30;2252.80;;;;;;5078786;28;20483;-68
2020/12/19 05:43:30;;;;;;;96.65;39.90;;;128.40;2252.80;;;;;;5079149;28;20033;-71
2020/12/19 05:45:56;;;;;;;99.95;41.65;;;128.30;2252.80;;;;;;5079182;28;20024;-69
2020/12/19 05:48:22;;;;;;;97.70;40.15;;;128.60;2252.80;;;;;;5079145;28;20403;-68
2020/12/19 05:50:48;;;;;;;94.05;40.33;;;128.60;2252.80;;;;;;5079340;28;20055;-71
2020/12/19 05:53:15;;;;;;;101.05;41.83;;;128.60;2252.80;;;;;;5078488;28;20059;-70
2020/12/19 05:55:41;;;;;;;100.80;40.22;;;128.50;2252.80;;;;;;5078938;28;20130;-68
2020/12/19 05:58:08;;;;;;;107.15;43.28;;;128.50;2252.80;;;;;;5078696;28;20028;-68
2020/12/19 06:00:34;;;;;;;106.93;43.05;;;128.70;2252.80;;;;;;5079113;28;20018;-68
2020/12/19 06:03:05;;;;;;;122.00;46.55;;;128.90;2252.80;;;;;;5078598;28;20394;-68
2020/12/19 06:05:32;;;;;;;130.32;58.92;;;153.60;2252.80;;;;;;5079052;28;20397;-70
2020/12/19 06:07:59;;;;;;;112.28;48.90;;;128.90;2252.80;;;;;;5078475;28;20021;-69
2020/12/19 06:10:26;;;;;;;109.70;45.92;;;128.80;2252.80;;;;;;5078421;28;20024;-69
2020/12/19 06:13:15;;;;;;;103.57;46.13;;;153.60;2252.80;;;;;;5078313;28;20078;-68
2020/12/19 06:15:54;;;;;;;;;;;128.80;2252.80;;;;;;5078485;28;20344;-68
2020/12/19 06:18:29;;;;;;;109.85;44.53;;;153.60;2252.80;;;;;;5078565;28;19951;-68
2020/12/19 06:20:56;;;;;;;92.43;39.92;;;153.60;2252.80;;;;;;5078180;28;20110;-70
2020/12/19 06:23:23;;;;;;;99.35;41.85;;;153.60;2252.80;;;;;;5077870;28;20030;-68
2020/12/19 06:25:49;;;;;;;98.15;40.78;;;153.70;2252.80;;;;;;5078666;28;20039;-69
2020/12/19 06:28:39;;;;;;;99.82;39.97;;;153.80;2252.80;;;;;;5078081;28;20123;-70
2020/12/19 06:31:06;;;;;;;93.82;40.55;;;153.70;2252.80;;;;;;5077706;28;20074;-67
2020/12/19 06:33:37;;;;;;;98.68;38.83;;;153.70;2252.80;;;;;;5078420;28;20028;-68
2020/12/19 06:36:16;;;;;;;97.35;40.35;;;153.90;2252.80;;;;;;5078046;28;20073;-68
2020/12/19 06:38:53;;;;;;;96.30;39.28;;;153.80;2252.80;;;;;;5078475;28;20025;-71
2020/12/19 06:41:40;;;;;;;93.40;39.35;;;153.60;2252.80;;;;;;5078399;28;20024;-72
2020/12/19 06:44:11;;;;;;;104.78;44.85;;;153.60;2252.80;;;;;;5077458;28;20067;-69
2020/12/19 06:46:37;;;;;;;98.03;41.97;;;128.70;2252.80;;;;;;5077485;28;20024;-70
2020/12/19 06:49:25;;;;;;;121.32;51.55;;;153.60;2252.80;;;;;;5077627;28;20374;-70
2020/12/19 06:51:57;;;;;;;113.00;47.53;;;128.90;2252.80;;;;;;5077634;28;20396;-68
2020/12/19 06:54:34;;;;;;;99.50;46.35;;;128.80;2252.80;;;;;;5077803;28;20107;-68
2020/12/19 06:57:00;;;;;;;96.45;44.63;;;153.60;2252.80;;;;;;5078062;28;20036;-68
2020/12/19 06:59:27;;;;;;;100.82;44.45;;;153.70;2252.80;;;;;;5077483;28;20086;-70
2020/12/19 07:02:19;;;;;;;105.43;44.08;;;153.60;2252.80;;;;;;5077680;28;20411;-70
2020/12/19 07:04:45;;;;;;;105.10;47.13;;;153.80;2252.80;;;;;;5077231;28;20060;-69
2020/12/19 07:07:14;;;;;;;218.27;95.07;;;153.90;2252.80;;;;;;5077862;28;20028;-70
2020/12/19 07:09:41;;;;;;;130.55;60.10;;;153.90;2252.80;;;;;;5077177;28;20048;-70
2020/12/19 07:12:37;;;;;;;97.05;46.78;;;154.10;2252.80;;;;;;5076764;28;20048;-69
2020/12/19 07:15:41;;;;;;;95.30;46.67;;;154.10;2252.80;;;;;;5077848;28;20127;-71
2020/12/19 07:18:33;;;;;;;81.97;38.83;;;153.80;2252.80;;;;;;5077206;28;20029;-69
2020/12/19 07:21:04;;;;;;;75.57;36.13;;;153.90;2252.80;;;;;;5077430;28;20115;-69
2020/12/19 07:23:33;;;;;;;82.60;38.15;;;154.10;2252.80;;;;;;5077361;28;20035;-70
2020/12/19 07:25:59;;;;;;;79.87;39.43;;;154.20;2252.80;;;;;;5076787;28;20082;-68
2020/12/19 07:28:25;;;;;;;85.50;39.53;;;154.10;2252.80;;;;;;5077336;28;20249;-70
2020/12/19 07:30:51;;;;;;;74.63;35.75;;;154.30;2252.80;;;;;;5077264;28;20440;-68
2020/12/19 07:33:18;;;;;;;80.45;37.58;;;154.30;2252.80;;;;;;5076986;28;20024;-69
2020/12/19 07:35:45;;;;;;;71.70;34.78;;;154.10;2252.80;;;;;;5076899;28;20036;-69
2020/12/19 07:38:11;;;;;;;77.53;37.38;;;154.20;2252.80;;;;;;5077187;28;20120;-70
2020/12/19 07:40:37;;;;;;;84.00;38.17;;;154.00;2252.80;;;;;;5076882;28;20068;-68
2020/12/19 07:43:05;;;;;;;82.65;39.92;;;153.90;2252.80;;;;;;5077438;28;20408;-71
2020/12/19 07:45:31;;;;;;;83.13;41.03;;;153.80;2252.80;;;;;;5077171;28;20031;-68
2020/12/19 07:47:57;;;;;;;84.68;38.60;;;154.10;2252.80;;;;;;5076818;28;20372;-69
2020/12/19 07:50:28;;;;;;;87.72;41.30;;;154.20;2252.80;;;;;;5059338;28;20323;-69
2020/12/19 07:53:06;;;;;;;82.65;38.22;;;154.20;2252.80;;;;;;5076792;28;20020;-69
2020/12/19 07:55:33;;;;;;;84.30;40.13;;;154.50;2252.80;;;;;;5077287;28;20025;-69
2020/12/19 07:58:00;;;;;;;82.78;40.63;;;154.30;2252.80;;;;;;5077246;28;20020;-69
2020/12/19 08:00:26;;;;;;;85.70;38.70;;;154.30;2252.80;;;;;;5077018;28;20077;-70
2020/12/19 08:02:53;;;;;;;83.15;37.33;;;154.50;2252.80;;;;;;5076934;28;20027;-70
2020/12/19 08:05:19;;;;;;;71.80;35.30;;;154.50;2252.80;;;;;;5076760;28;20125;-71
2020/12/19 08:07:49;;;;;;;80.55;35.05;;;154.50;2252.80;;;;;;5076911;28;20190;-71
2020/12/19 08:10:15;;;;;;;81.93;35.65;;;154.10;2252.80;;;;;;5076881;28;20051;-70
2020/12/19 08:12:41;;;;;;;78.60;37.65;;;154.20;2252.80;;;;;;5075370;28;20131;-69
2020/12/19 08:15:10;;;;;;;72.90;37.05;;;154.30;2252.80;;;;;;5076005;28;20020;-70
2020/12/19 08:17:38;;;;;;;;;;;154.30;2252.80;;;;;;5077457;28;20089;-70
2020/12/19 08:20:04;;;;;;;71.57;33.47;;;179.20;2252.80;;;;;;5076819;28;19904;-70
2020/12/19 08:22:31;;;;;;;74.25;34.60;;;179.20;2252.80;;;;;;5076753;28;20029;-70
2020/12/19 08:24:57;;;;;;;63.97;33.85;;;179.30;2252.80;;;;;;5078555;28;20020;-70
2020/12/19 08:27:43;;;;;;;81.55;48.28;;;154.50;2252.80;;;;;;5079220;28;20308;-72
2020/12/19 08:30:19;;;;;;;76.28;39.15;;;179.20;2201.60;;;;;;5078778;28;20442;-71
2020/12/19 08:32:49;;;;;;;74.38;35.25;;;179.30;2227.20;;;;;;5079867;28;20082;-70
2020/12/19 08:35:21;;;;;;;72.38;34.97;;;154.40;2227.20;;;;;;5080160;28;20021;-70
2020/12/19 08:37:47;;;;;;;99.68;52.17;;;154.40;2252.80;;;;;;5080332;28;20032;-69
2020/12/19 08:40:18;;;;;;;168.18;83.10;;;154.50;2227.20;;;;;;5080373;28;20024;-70
2020/12/19 08:42:46;;;;;;;187.38;96.95;;;154.30;2252.80;;;;;;5080289;28;20111;-71
2020/12/19 08:45:32;;;;;;;139.55;74.30;;;154.10;2252.80;;;;;;5080599;28;20027;-70
2020/12/19 08:48:19;;;;;;;91.95;46.58;;;154.30;2252.80;;;;;;5080620;28;20060;-72
2020/12/19 08:50:47;;;;;;;84.28;41.78;;;154.20;2252.80;;;;;;5078632;28;20036;-71
2020/12/19 08:53:22;;;;;;;95.80;45.92;;;154.20;2252.80;;;;;;5080161;28;20025;-70
2020/12/19 08:55:50;;;;;;;84.38;37.90;;;154.40;2252.80;;;;;;5080098;28;20046;-71
2020/12/19 08:58:26;;;;;;;101.55;50.58;;;154.30;2252.80;;;;;;5079808;28;20327;-70
2020/12/19 09:00:57;;;;;;;107.93;45.90;;;154.40;2252.80;;;;;;5079760;28;20031;-70
2020/12/19 09:03:27;;;;;;;92.85;42.55;;;154.50;2252.80;;;;;;5080015;28;20028;-71
2020/12/19 09:06:05;;;;;;;97.70;43.05;;;154.20;2252.80;;;;;;5079880;28;20052;-70
2020/12/19 09:08:45;;;;;;;98.03;43.70;;;154.00;2252.80;;;;;;5080198;28;20443;-71
2020/12/19 09:11:22;;;;;;;111.80;51.75;;;153.70;2252.80;;;;;;5079820;28;20025;-70
2020/12/19 09:13:48;;;;;;;152.63;82.18;;;153.70;2252.80;;;;;;5079754;28;20107;-71
2020/12/19 09:16:14;;;;;;;146.23;73.20;;;153.70;2252.80;;;;;;5078673;28;20115;-71
2020/12/19 09:18:40;;;;;;;106.50;47.10;;;153.70;2252.80;;;;;;5077906;28;20024;-69
2020/12/19 09:21:08;;;;;;;107.80;48.13;;;153.90;2252.80;;;;;;5078215;28;20141;-71
2020/12/19 09:23:35;;;;;;;127.70;62.25;;;153.80;2252.80;;;;;;5078533;28;20103;-73
2020/12/19 09:26:03;;;;;;;147.27;67.22;;;153.80;2252.80;;;;;;5077498;28;20099;-70
2020/12/19 09:28:29;;;;;;;157.33;69.43;;;153.80;2252.80;;;;;;5078341;28;20020;-71
2020/12/19 09:30:56;;;;;;;133.45;59.80;;;153.80;2252.80;;;;;;5078071;28;20036;-72
2020/12/19 09:33:23;;;;;;;118.10;57.72;;;154.00;2252.80;;;;;;5077784;28;20016;-68
2020/12/19 09:35:49;;;;;;;134.32;58.75;;;154.10;2252.80;;;;;;5078891;28;20037;-71
2020/12/19 09:38:16;;;;;;;109.28;46.38;;;154.00;2252.80;;;;;;5078510;28;20078;-72
2020/12/19 09:40:42;;;;;;;97.05;43.53;;;154.00;2252.80;;;;;;5078456;28;20077;-72
2020/12/19 09:43:08;;;;;;;103.28;43.50;;;154.10;2252.80;;;;;;5078146;28;20056;-72
2020/12/19 09:45:37;;;;;;;146.73;64.00;;;154.50;2252.80;;;;;;5078046;28;20317;-71
2020/12/19 09:48:04;;;;;;;194.02;95.22;;;154.50;2252.80;;;;;;5079162;28;20328;-70
2020/12/19 09:50:30;;;;;;;131.82;64.00;;;179.20;2252.80;;;;;;5079151;28;20132;-72
2020/12/19 09:52:56;;;;;;;217.57;99.63;;;154.40;2252.80;;;;;;5067378;28;20029;-72
2020/12/19 09:55:23;;;;;;;115.13;48.67;;;154.30;2252.80;;;;;;5059534;28;20021;-72
2020/12/19 09:57:49;;;;;;;145.13;60.63;;;154.20;2252.80;;;;;;5058957;28;20072;-70
2020/12/19 10:00:15;;;;;;;195.50;83.28;;;154.20;2252.80;;;;;;5058612;28;20021;-70
2020/12/19 10:02:42;;;;;;;209.77;89.88;;;154.20;2252.80;;;;;;5058597;28;20358;-72
2020/12/19 10:05:09;;;;;;;110.90;42.38;;;154.10;2252.80;;;;;;5058941;28;20063;-72
2020/12/19 10:07:35;;;;;;;97.70;41.85;;;153.90;2252.80;;;;;;5058800;28;20104;-71
2020/12/19 10:10:03;;;;;;;102.78;39.10;;;153.60;2252.80;;;;;;5058962;28;20025;-71
2020/12/19 10:12:29;;;;;;;91.32;38.75;;;153.90;2252.80;;;;;;5058990;28;20056;-72
2020/12/19 10:14:54;;;;;;;99.70;43.58;;;153.90;2252.80;;;;;;5058597;28;20051;-71
2020/12/19 10:17:20;;;;;;;103.90;43.30;;;153.90;2252.80;;;;;;5058758;28;20033;-70
2020/12/19 10:19:46;;;;;;;91.38;40.05;;;154.10;2252.80;;;;;;5058555;28;20024;-69
2020/12/19 10:22:12;;;;;;;97.72;39.75;;;154.00;2252.80;;;;;;5058474;28;20028;-70
2020/12/19 10:24:38;;;;;;;103.45;45.40;;;153.80;2252.80;;;;;;5058141;28;20024;-70
2020/12/19 10:27:04;;;;;;;87.30;42.03;;;153.80;2252.80;;;;;;5058431;28;20032;-69
2020/12/19 10:29:29;;;;;;;101.45;44.65;;;154.10;2252.80;;;;;;5058361;28;20404;-72
2020/12/19 10:31:55;;;;;;;145.70;66.07;;;154.30;2252.80;;;;;;5058261;28;20025;-70
2020/12/19 10:34:21;;;;;;;104.43;45.97;;;179.30;2252.80;;;;;;5058262;28;20048;-69
2020/12/19 10:36:51;;;;;;;115.07;51.10;;;154.50;2252.80;;;;;;5058123;28;20033;-70
2020/12/19 10:39:17;;;;;;;113.80;49.33;;;154.40;2252.80;;;;;;5058471;28;20020;-71
2020/12/19 10:41:47;;;;;;;103.00;45.13;;;153.90;2252.80;;;;;;5057538;28;20082;-71
2020/12/19 10:44:13;;;;;;;112.93;49.10;;;153.90;2252.80;;;;;;5058086;28;20028;-72
2020/12/19 10:46:39;;;;;;;133.32;60.38;;;154.00;2252.80;;;;;;5057187;28;20029;-71
2020/12/19 10:49:04;;;;;;;152.32;66.60;;;154.00;2252.80;;;;;;5058017;28;20021;-71
2020/12/19 10:51:30;;;;;;;124.00;54.08;;;154.10;2252.80;;;;;;5058166;28;20025;-71
2020/12/19 10:53:56;;;;;;;120.40;54.90;;;154.20;2252.80;;;;;;5057919;28;20025;-71
2020/12/19 10:56:22;;;;;;;114.10;55.05;;;154.30;2252.80;;;;;;5057170;28;20029;-71
2020/12/19 10:58:49;;;;;;;110.07;51.35;;;154.20;2252.80;;;;;;5057247;28;20028;-70
2020/12/19 11:01:15;;;;;;;81.47;37.50;;;154.50;2252.80;;;;;;5070602;28;20024;-69
2020/12/19 11:03:42;;;;;;;95.60;47.30;;;154.50;2252.80;;;;;;5075767;28;20138;-70
2020/12/19 11:06:16;;;;;;;87.32;40.50;;;154.30;2252.80;;;;;;5075593;28;20448;-71
2020/12/19 11:08:42;;;;;;;79.53;35.80;;;154.20;2252.80;;;;;;5074611;28;20377;-70
2020/12/19 11:11:08;;;;;;;106.47;53.22;;;154.10;2252.80;;;;;;5077274;28;20025;-70
2020/12/19 11:13:34;;;;;;;92.45;44.67;;;154.40;2252.80;;;;;;5077482;28;20025;-71
2020/12/19 11:16:00;;;;;;;80.07;39.97;;;179.80;2252.80;;;;;;5077326;28;20313;-69
2020/12/19 11:18:26;;;;;;;73.53;35.60;;;179.70;2252.80;;;;;;5076970;28;20028;-70
2020/12/19 11:20:51;;;;;;;97.43;49.65;;;179.50;2252.80;;;;;;5077672;28;20031;-69
2020/12/19 11:23:17;;;;;;;70.13;36.40;;;180.10;2252.80;;;;;;5077137;28;20024;-71
2020/12/19 11:25:43;;;;;;;74.47;39.10;;;180.10;2227.20;;;;;;5077338;28;20415;-70
2020/12/19 11:28:09;;;;;;;68.07;33.97;;;180.00;2252.80;;;;;;5077321;28;20031;-69
2020/12/19 11:30:35;;;;;;;67.43;34.13;;;180.10;2201.60;;;;;;5077208;28;20378;-70
2020/12/19 11:33:01;;;;;;;61.05;32.40;;;205.50;2099.20;;;;;;5077518;28;20020;-70
2020/12/19 11:35:26;;;;;;;65.53;36.00;;;230.40;2073.60;;;;;;5076960;28;20024;-71
2020/12/19 11:37:52;;;;;;;60.13;31.90;;;230.50;2099.20;;;;;;5076948;28;20093;-72
2020/12/19 11:40:18;;;;;;;64.80;34.53;;;180.00;2201.60;;;;;;5076901;28;20031;-70
2020/12/19 11:42:44;;;;;;;66.07;37.63;;;180.00;2201.60;;;;;;5077037;28;20383;-70
2020/12/19 11:45:09;;;;;;;64.80;34.22;;;180.00;2227.20;;;;;;5077306;28;20028;-70
2020/12/19 11:47:35;;;;;;;60.15;32.80;;;180.00;2201.60;;;;;;5077125;28;20312;-72
2020/12/19 11:50:03;;;;;;;68.63;36.50;;;205.10;2176.00;;;;;;5073284;28;20024;-70
2020/12/19 11:52:30;;;;;;;68.88;39.72;;;205.40;2124.80;;;;;;5076867;28;20046;-69
2020/12/19 11:54:55;;;;;;;56.72;29.90;;;205.00;2150.40;;;;;;5076040;28;20362;-71
2020/12/19 11:57:22;;;;;;;67.63;37.67;;;205.00;2150.40;;;;;;5072309;28;20033;-70